Time;durP1;ratioP1;P1;durP2;ratioP2;P2;SDS_P1;SDS_P2;PMS_P1;PMS_P2;Temp;Humidity;BMP_temperature;BMP_pressure;BME280_temperature;BME280_humidity;BME280_pressure;Samples;Min_cycle;Max_cycle;Signal;HPM_P1;HPM_P2
2021/12/10 00:01:43;;;;;;;75.07;70.07;;;3.30;99.90;;;;;;4350082;33;20157;-66
2021/12/10 00:04:12;;;;;;;74.30;69.03;;;3.30;99.90;;;;;;4358958;32;20177;-65
2021/12/10 00:06:42;;;;;;;77.07;71.67;;;3.30;99.90;;;;;;4354120;32;20221;-65
2021/12/10 00:09:14;;;;;;;65.90;60.63;;;3.30;99.90;;;;;;4352324;33;20213;-68
2021/12/10 00:11:45;;;;;;;69.50;64.00;;;3.40;99.90;;;;;;4358895;33;20235;-66
2021/12/10 00:14:13;;;;;;;67.53;62.33;;;3.30;99.90;;;;;;4349074;33;20220;-66
2021/12/10 00:16:42;;;;;;;71.00;65.47;;;3.40;99.90;;;;;;4354633;33;20162;-65
2021/12/10 00:19:20;;;;;;;69.43;64.43;;;3.40;99.90;;;;;;4353786;32;20164;-66
2021/12/10 00:21:49;;;;;;;72.67;66.93;;;3.40;99.90;;;;;;4361766;32;20196;-69
2021/12/10 00:24:16;;;;;;;83.70;78.10;;;3.50;99.90;;;;;;4352116;32;20174;-67
2021/12/10 00:26:45;;;;;;;75.17;69.07;;;3.50;99.90;;;;;;4356458;32;20261;-66
2021/12/10 00:29:15;;;;;;;82.60;77.37;;;3.50;99.90;;;;;;4348917;32;20188;-66
2021/12/10 00:31:49;;;;;;;80.80;75.47;;;3.50;99.90;;;;;;4354237;33;20152;-66
2021/12/10 00:34:22;;;;;;;79.70;74.30;;;3.50;99.90;;;;;;4355732;32;20154;-66
2021/12/10 00:36:51;;;;;;;83.03;77.60;;;3.50;99.90;;;;;;4355740;32;20485;-65
2021/12/10 00:39:24;;;;;;;85.33;79.73;;;3.50;99.90;;;;;;4352967;32;20227;-64
2021/12/10 00:41:52;;;;;;;83.03;77.60;;;3.60;99.90;;;;;;4351634;33;20220;-67
2021/12/10 00:44:20;;;;;;;83.27;77.30;;;3.60;99.90;;;;;;4356219;32;20597;-68
2021/12/10 00:46:48;;;;;;;81.17;75.53;;;3.60;99.90;;;;;;4357562;32;20603;-68
2021/12/10 00:49:15;;;;;;;80.57;75.13;;;3.70;99.90;;;;;;4349403;33;20183;-67
2021/12/10 00:51:43;;;;;;;87.57;81.33;;;3.70;99.90;;;;;;4357816;33;20183;-66
2021/12/10 00:54:11;;;;;;;85.90;80.03;;;3.70;99.90;;;;;;4346776;33;20176;-66
2021/12/10 00:56:41;;;;;;;87.63;82.00;;;3.70;99.90;;;;;;4355822;33;20218;-65
2021/12/10 00:59:08;;;;;;;85.50;79.57;;;3.80;99.90;;;;;;4361699;32;20222;-65
2021/12/10 01:01:37;;;;;;;94.60;88.40;;;3.70;99.90;;;;;;4348983;33;20227;-66
2021/12/10 01:04:07;;;;;;;94.87;88.80;;;3.80;99.90;;;;;;4353788;32;20213;-65
2021/12/10 01:06:35;;;;;;;100.93;93.27;;;3.80;99.90;;;;;;4352709;33;20203;-66
2021/12/10 01:09:11;;;;;;;102.60;96.37;;;3.80;99.90;;;;;;4358856;32;20591;-65
2021/12/10 01:11:41;;;;;;;105.33;98.47;;;3.80;99.90;;;;;;4349793;33;20181;-66
2021/12/10 01:14:21;;;;;;;110.17;103.23;;;3.80;99.90;;;;;;4356988;32;20173;-65
2021/12/10 01:25:23;;;;;;;120.63;113.47;;;3.80;99.90;;;;;;4359120;32;20220;-64
2021/12/10 01:27:50;;;;;;;115.17;107.67;;;3.80;99.90;;;;;;4348128;33;20226;-65
2021/12/10 01:30:20;;;;;;;114.60;108.33;;;3.80;99.90;;;;;;4353518;33;20164;-66
2021/12/10 01:32:53;;;;;;;106.47;100.20;;;3.80;99.90;;;;;;4352342;32;20531;-64
2021/12/10 01:35:26;;;;;;;116.80;109.67;;;3.80;99.90;;;;;;4359978;32;20198;-64
2021/12/10 01:37:54;;;;;;;117.40;111.00;;;3.80;99.90;;;;;;4355479;33;20185;-64
2021/12/10 01:40:24;;;;;;;119.20;112.67;;;3.80;99.90;;;;;;4353796;33;20177;-65
2021/12/10 01:42:54;;;;;;;129.43;122.30;;;3.70;99.90;;;;;;4350968;32;20161;-66
2021/12/10 01:45:24;;;;;;;129.90;122.63;;;3.70;99.90;;;;;;4358484;33;20174;-64
2021/12/10 01:47:58;;;;;;;129.30;122.37;;;3.60;99.90;;;;;;4349770;33;20169;-65
2021/12/10 01:50:27;;;;;;;132.47;125.43;;;3.50;99.90;;;;;;4350789;32;20260;-65
2021/12/10 01:52:56;;;;;;;132.57;125.30;;;3.40;99.90;;;;;;4356771;32;20182;-65
2021/12/10 01:55:26;;;;;;;130.57;123.80;;;3.20;99.90;;;;;;4348957;32;20214;-64
2021/12/10 01:57:55;;;;;;;135.57;128.47;;;3.20;99.90;;;;;;4360274;33;20170;-65
2021/12/10 02:00:28;;;;;;;131.80;124.90;;;3.20;99.90;;;;;;4354517;32;20183;-68
2021/12/10 02:02:57;;;;;;;133.50;126.30;;;3.10;99.90;;;;;;4357400;33;20157;-67
2021/12/10 02:05:24;;;;;;;125.87;119.33;;;3.10;99.90;;;;;;4348492;33;20177;-67
2021/12/10 02:07:53;;;;;;;131.97;125.43;;;3.00;99.90;;;;;;4357409;32;20220;-64
2021/12/10 02:10:22;;;;;;;135.23;128.10;;;3.00;99.90;;;;;;4352218;33;20204;-64
2021/12/10 02:12:49;;;;;;;132.93;126.10;;;3.00;99.90;;;;;;4352030;32;20173;-67
2021/12/10 02:15:17;;;;;;;133.70;126.60;;;2.90;99.90;;;;;;4347354;33;20172;-67
2021/12/10 02:17:47;;;;;;;132.90;126.43;;;2.90;99.90;;;;;;4358718;32;20652;-66
2021/12/10 02:20:20;;;;;;;134.57;127.10;;;3.00;99.90;;;;;;4352566;33;20682;-68
2021/12/10 02:22:49;;;;;;;132.23;125.20;;;2.90;99.90;;;;;;4350585;33;20157;-67
2021/12/10 02:25:18;;;;;;;130.43;123.80;;;2.90;99.90;;;;;;4357555;33;20219;-66
2021/12/10 02:27:45;;;;;;;129.40;122.90;;;2.80;99.90;;;;;;4348959;33;20220;-65
2021/12/10 02:30:16;;;;;;;127.77;120.87;;;2.80;99.90;;;;;;4352316;32;20492;-68
2021/12/10 02:32:43;;;;;;;125.30;119.00;;;2.80;99.90;;;;;;4350906;33;20162;-68
2021/12/10 02:35:13;;;;;;;120.17;113.40;;;2.80;99.90;;;;;;4359199;32;20158;-66
2021/12/10 02:37:40;;;;;;;119.37;112.63;;;2.80;99.90;;;;;;4348883;33;20153;-68
2021/12/10 02:40:10;;;;;;;119.17;112.77;;;2.90;99.90;;;;;;4354400;32;20176;-67
2021/12/10 02:42:38;;;;;;;124.77;118.43;;;2.80;99.90;;;;;;4354673;33;20258;-65
2021/12/10 02:45:06;;;;;;;121.87;115.73;;;2.80;99.90;;;;;;4350297;32;20603;-66
2021/12/10 02:47:34;;;;;;;125.47;119.23;;;2.80;99.90;;;;;;4359377;32;20161;-66
2021/12/10 02:50:01;;;;;;;120.37;113.83;;;2.80;99.90;;;;;;4352140;32;20177;-68
2021/12/10 02:52:29;;;;;;;119.23;112.93;;;2.80;99.90;;;;;;4352171;33;20205;-67
2021/12/10 02:54:57;;;;;;;118.30;111.53;;;2.90;99.90;;;;;;4345628;33;20578;-67
2021/12/10 02:57:27;;;;;;;124.83;118.70;;;2.80;99.90;;;;;;4347494;33;20234;-67
2021/12/10 02:59:54;;;;;;;124.40;117.43;;;2.80;99.90;;;;;;4356966;33;20675;-67
2021/12/10 03:02:24;;;;;;;120.93;115.10;;;2.90;99.90;;;;;;4348433;33;20228;-66
2021/12/10 03:04:53;;;;;;;129.13;121.50;;;2.90;99.90;;;;;;4357260;33;20158;-68
2021/12/10 03:07:22;;;;;;;120.90;114.53;;;2.90;99.90;;;;;;4347739;33;20572;-67
2021/12/10 03:09:51;;;;;;;129.53;122.53;;;2.90;99.90;;;;;;4356072;33;20177;-68
2021/12/10 03:12:21;;;;;;;126.97;120.37;;;2.90;99.90;;;;;;4354066;33;20220;-65
2021/12/10 03:14:52;;;;;;;121.00;115.00;;;2.90;99.90;;;;;;4351354;33;20153;-66
2021/12/10 03:17:21;;;;;;;116.70;110.73;;;2.90;99.90;;;;;;4358996;33;20149;-65
2021/12/10 03:19:49;;;;;;;115.23;109.63;;;2.90;99.90;;;;;;4349309;33;20177;-66
2021/12/10 03:22:16;;;;;;;120.17;114.00;;;2.90;99.90;;;;;;4354918;33;20218;-68
2021/12/10 03:24:43;;;;;;;118.27;112.30;;;2.90;99.90;;;;;;4354545;33;20203;-66
2021/12/10 03:27:11;;;;;;;114.20;108.70;;;3.00;99.90;;;;;;4348331;33;20171;-66
2021/12/10 03:29:41;;;;;;;119.37;113.27;;;3.00;99.90;;;;;;4357161;33;20179;-67
2021/12/10 03:32:14;;;;;;;111.17;105.73;;;3.10;99.90;;;;;;4348262;33;20167;-67
2021/12/10 03:34:41;;;;;;;116.00;110.53;;;3.20;99.90;;;;;;4355494;33;20213;-65
2021/12/10 03:37:08;;;;;;;124.03;117.60;;;3.20;99.90;;;;;;4347793;33;20172;-67
2021/12/10 03:39:36;;;;;;;127.80;121.83;;;3.20;99.90;;;;;;4349203;33;20546;-65
2021/12/10 03:42:05;;;;;;;134.53;127.83;;;3.20;99.90;;;;;;4355982;32;20175;-67
2021/12/10 03:44:33;;;;;;;134.80;128.93;;;3.30;99.90;;;;;;4350424;33;20217;-68
2021/12/10 03:47:01;;;;;;;133.10;126.97;;;3.30;99.90;;;;;;4351255;33;20213;-66
2021/12/10 03:49:29;;;;;;;129.40;123.33;;;3.40;99.90;;;;;;4351421;32;20566;-66
2021/12/10 03:51:56;;;;;;;135.17;128.87;;;3.40;99.90;;;;;;4359568;33;20221;-64
2021/12/10 03:54:23;;;;;;;140.20;134.00;;;3.40;99.90;;;;;;4354851;33;20182;-65
2021/12/10 03:56:52;;;;;;;142.07;135.70;;;3.40;99.90;;;;;;4353660;33;20193;-66
2021/12/10 03:59:21;;;;;;;140.47;134.20;;;3.40;99.90;;;;;;4360919;33;20154;-68
2021/12/10 04:01:50;;;;;;;133.90;127.83;;;3.40;99.90;;;;;;4358448;33;20224;-66
2021/12/10 04:04:19;;;;;;;136.73;130.60;;;3.40;99.90;;;;;;4356417;32;20173;-69
2021/12/10 04:06:48;;;;;;;136.00;130.00;;;3.40;99.90;;;;;;4356143;32;20215;-66
2021/12/10 04:09:15;;;;;;;136.63;130.13;;;3.40;99.90;;;;;;4352624;32;20665;-68
2021/12/10 04:11:44;;;;;;;136.53;130.17;;;3.40;99.90;;;;;;4351788;33;20165;-67
2021/12/10 04:14:11;;;;;;;137.60;131.30;;;3.40;99.90;;;;;;4357720;32;20167;-66
2021/12/10 04:16:38;;;;;;;137.63;131.53;;;3.40;99.90;;;;;;4356857;33;20156;-65
2021/12/10 04:19:07;;;;;;;140.40;134.23;;;3.50;99.90;;;;;;4351641;32;20184;-65
2021/12/10 04:21:40;;;;;;;135.47;129.70;;;3.50;99.90;;;;;;4351605;32;20213;-67
2021/12/10 04:24:11;;;;;;;134.33;128.27;;;3.60;99.90;;;;;;4363295;32;20166;-67
2021/12/10 04:26:38;;;;;;;136.10;130.00;;;3.60;99.90;;;;;;4360288;32;20181;-67
2021/12/10 04:29:05;;;;;;;129.13;123.43;;;3.70;99.90;;;;;;4351711;32;20463;-68
2021/12/10 04:31:32;;;;;;;131.63;125.40;;;3.80;99.90;;;;;;4359484;33;20692;-67
2021/12/10 04:33:59;;;;;;;133.50;127.43;;;3.90;99.90;;;;;;4352477;33;20225;-66
2021/12/10 04:36:27;;;;;;;124.37;118.33;;;3.90;99.90;;;;;;4353972;33;20246;-65
2021/12/10 04:38:53;;;;;;;132.53;126.37;;;3.90;99.90;;;;;;4357627;33;20174;-65
2021/12/10 04:41:22;;;;;;;131.30;125.63;;;4.00;99.90;;;;;;4349398;33;20192;-70
2021/12/10 04:43:49;;;;;;;127.23;121.40;;;4.00;99.90;;;;;;4358605;32;20178;-66
2021/12/10 04:46:17;;;;;;;122.30;116.97;;;4.10;99.90;;;;;;4354148;33;20189;-65
2021/12/10 04:48:50;;;;;;;120.47;115.10;;;4.00;99.90;;;;;;4352058;33;20152;-65
2021/12/10 04:51:18;;;;;;;119.23;113.60;;;4.00;99.90;;;;;;4360863;32;20170;-67
2021/12/10 04:53:45;;;;;;;124.97;119.23;;;4.10;99.90;;;;;;4350154;33;20239;-66
2021/12/10 04:56:12;;;;;;;130.93;125.13;;;4.10;99.90;;;;;;4355053;33;20173;-69
2021/12/10 04:58:41;;;;;;;127.50;121.77;;;4.10;99.90;;;;;;4356130;33;20187;-68
2021/12/10 05:01:08;;;;;;;119.77;114.10;;;4.10;99.90;;;;;;4360991;33;20172;-68
2021/12/10 05:03:35;;;;;;;122.13;116.60;;;4.10;99.90;;;;;;4349581;33;20173;-67
2021/12/10 05:06:04;;;;;;;122.23;116.47;;;4.00;99.90;;;;;;4346807;33;20187;-67
2021/12/10 05:08:31;;;;;;;125.13;119.57;;;3.90;99.90;;;;;;4346857;33;20162;-64
2021/12/10 05:10:58;;;;;;;123.10;117.27;;;3.80;99.90;;;;;;4348297;33;20213;-67
2021/12/10 05:13:25;;;;;;;118.70;113.10;;;3.80;99.90;;;;;;4347605;33;20297;-66
2021/12/10 05:15:57;;;;;;;115.00;109.80;;;3.70;99.90;;;;;;4352751;32;20498;-65
2021/12/10 05:18:25;;;;;;;120.57;114.77;;;3.60;99.90;;;;;;4353018;32;20444;-67
2021/12/10 05:20:53;;;;;;;114.40;109.43;;;3.60;99.90;;;;;;4358745;32;20181;-68
2021/12/10 05:23:21;;;;;;;118.33;112.77;;;3.60;99.90;;;;;;4348941;33;20227;-68
2021/12/10 05:25:48;;;;;;;131.33;125.47;;;3.60;99.90;;;;;;4361442;32;20214;-66
2021/12/10 05:28:16;;;;;;;129.70;123.20;;;3.60;99.90;;;;;;4354602;33;20217;-65
2021/12/10 05:30:44;;;;;;;127.23;120.90;;;3.60;99.90;;;;;;4358479;33;20182;-64
2021/12/10 05:33:16;;;;;;;120.13;114.83;;;3.60;99.90;;;;;;4348686;33;20149;-66
2021/12/10 05:35:45;;;;;;;125.70;119.87;;;3.50;99.90;;;;;;4356934;32;20169;-67
2021/12/10 05:38:12;;;;;;;124.53;119.03;;;3.50;99.90;;;;;;4352719;33;20201;-64
2021/12/10 05:40:39;;;;;;;133.50;127.33;;;3.50;99.90;;;;;;4351829;33;20230;-66
2021/12/10 05:43:06;;;;;;;125.23;119.03;;;3.40;99.90;;;;;;4358385;33;20212;-64
2021/12/10 05:45:33;;;;;;;136.23;129.60;;;3.50;99.90;;;;;;4350231;32;20157;-65
2021/12/10 05:48:00;;;;;;;128.33;122.67;;;3.50;99.90;;;;;;4355702;33;20177;-67
2021/12/10 05:50:29;;;;;;;140.07;133.17;;;3.50;99.90;;;;;;4355687;32;20169;-68
2021/12/10 05:52:56;;;;;;;132.33;126.53;;;3.40;99.90;;;;;;4358944;32;20660;-65
2021/12/10 05:55:23;;;;;;;131.10;125.03;;;3.50;99.90;;;;;;4348543;33;20158;-63
2021/12/10 05:57:50;;;;;;;139.10;132.70;;;3.50;99.90;;;;;;4355257;32;20472;-65
2021/12/10 06:00:20;;;;;;;142.67;136.07;;;3.50;99.90;;;;;;4353695;33;20219;-66
2021/12/10 06:02:47;;;;;;;135.23;129.07;;;3.40;99.90;;;;;;4356141;33;20221;-65
2021/12/10 06:05:15;;;;;;;133.90;128.00;;;3.40;99.90;;;;;;4348641;32;20513;-65
2021/12/10 06:07:47;;;;;;;138.77;132.63;;;3.40;99.90;;;;;;4354178;32;20173;-64
2021/12/10 06:10:18;;;;;;;144.07;137.63;;;3.40;99.90;;;;;;4348393;33;20196;-63
2021/12/10 06:12:47;;;;;;;135.23;129.00;;;3.40;99.90;;;;;;4349872;32;20181;-63
2021/12/10 06:15:18;;;;;;;135.07;129.40;;;3.40;99.90;;;;;;4350936;32;20172;-63
2021/12/10 06:17:45;;;;;;;141.13;134.70;;;3.40;99.90;;;;;;4353654;32;20288;-63
2021/12/10 06:20:16;;;;;;;135.07;129.07;;;3.40;99.90;;;;;;4348241;33;20161;-66
2021/12/10 06:22:44;;;;;;;132.23;126.33;;;3.40;99.90;;;;;;4350244;32;20533;-64
2021/12/10 06:25:11;;;;;;;133.23;126.93;;;3.50;99.90;;;;;;4347574;32;20271;-65
2021/12/10 06:27:44;;;;;;;127.70;122.03;;;3.50;99.90;;;;;;4352620;33;20226;-65
2021/12/10 06:30:13;;;;;;;125.77;120.33;;;3.60;99.90;;;;;;4350088;33;20660;-65
2021/12/10 06:32:40;;;;;;;125.63;120.23;;;3.60;99.90;;;;;;4350160;32;20164;-66
2021/12/10 06:35:09;;;;;;;126.70;121.03;;;3.70;99.90;;;;;;4352642;32;20260;-66
2021/12/10 06:37:36;;;;;;;144.33;138.13;;;3.70;99.90;;;;;;4351468;33;20235;-64
2021/12/10 06:40:07;;;;;;;135.17;128.87;;;3.70;99.90;;;;;;4351096;33;20273;-66
2021/12/10 06:42:33;;;;;;;131.33;125.73;;;3.70;99.90;;;;;;4350128;32;20715;-64
2021/12/10 06:45:00;;;;;;;133.50;126.80;;;3.70;99.90;;;;;;4347238;33;20187;-64
2021/12/10 06:47:27;;;;;;;130.47;124.30;;;3.70;99.90;;;;;;4348640;33;20700;-66
2021/12/10 06:49:54;;;;;;;122.43;116.50;;;3.60;99.90;;;;;;4350487;32;20622;-63
2021/12/10 06:52:21;;;;;;;130.37;124.17;;;3.50;99.90;;;;;;4350588;33;20212;-64
2021/12/10 06:54:48;;;;;;;124.40;118.43;;;3.50;99.90;;;;;;4350203;33;20183;-64
2021/12/10 06:57:16;;;;;;;121.07;115.17;;;3.50;99.90;;;;;;4350621;33;20180;-64
2021/12/10 06:59:43;;;;;;;128.40;122.37;;;3.50;99.90;;;;;;4351167;33;20163;-65
2021/12/10 07:02:12;;;;;;;119.80;114.43;;;3.50;99.90;;;;;;4351973;33;20213;-67
2021/12/10 07:04:41;;;;;;;124.40;118.70;;;3.40;99.90;;;;;;4349718;33;20219;-64
2021/12/10 07:07:09;;;;;;;122.07;116.60;;;3.40;99.90;;;;;;4348549;33;21351;-63
2021/12/10 07:09:36;;;;;;;126.63;120.73;;;3.40;99.90;;;;;;4351815;33;20505;-64
2021/12/10 07:12:04;;;;;;;124.93;118.93;;;3.50;99.90;;;;;;4348192;33;20207;-64
2021/12/10 07:14:32;;;;;;;132.53;126.37;;;3.50;99.90;;;;;;4349086;33;20523;-64
2021/12/10 07:17:00;;;;;;;127.87;122.17;;;3.50;99.90;;;;;;4352633;32;20480;-64
2021/12/10 07:19:28;;;;;;;126.83;120.80;;;3.60;99.90;;;;;;4350667;33;20512;-63
2021/12/10 07:21:56;;;;;;;126.40;120.03;;;3.60;99.90;;;;;;4351351;33;20168;-64
2021/12/10 07:24:23;;;;;;;118.00;112.57;;;3.60;99.90;;;;;;4351777;32;20261;-65
2021/12/10 07:26:51;;;;;;;122.20;116.17;;;3.60;99.90;;;;;;4355598;32;20153;-65
2021/12/10 07:29:18;;;;;;;119.87;113.97;;;3.60;99.90;;;;;;4355403;33;20191;-65
2021/12/10 07:31:46;;;;;;;128.27;122.30;;;3.70;99.90;;;;;;4350494;33;20259;-64
2021/12/10 07:34:14;;;;;;;124.03;118.63;;;3.70;99.90;;;;;;4354523;32;20873;-65
2021/12/10 07:36:41;;;;;;;130.20;124.43;;;3.70;99.90;;;;;;4352464;33;20195;-65
2021/12/10 07:39:09;;;;;;;129.57;123.40;;;3.70;99.90;;;;;;4362503;32;20520;-67
2021/12/10 07:41:40;;;;;;;119.47;113.93;;;3.60;99.90;;;;;;4362129;33;20156;-64
2021/12/10 07:44:08;;;;;;;126.03;120.07;;;3.70;99.90;;;;;;4355481;32;20651;-66
2021/12/10 07:46:35;;;;;;;126.40;120.63;;;3.70;99.90;;;;;;4357386;33;20188;-65
2021/12/10 07:49:06;;;;;;;127.03;120.87;;;3.80;99.90;;;;;;4349926;32;20542;-65
2021/12/10 07:51:34;;;;;;;124.77;119.13;;;3.80;99.90;;;;;;4349117;33;20562;-65
2021/12/10 07:54:02;;;;;;;121.17;115.87;;;3.80;99.90;;;;;;4350697;32;20183;-64
2021/12/10 07:56:30;;;;;;;120.83;115.63;;;3.90;99.90;;;;;;4353433;32;20212;-65
2021/12/10 07:58:57;;;;;;;121.90;116.37;;;3.80;99.90;;;;;;4353732;33;20256;-65
2021/12/10 08:01:27;;;;;;;117.10;111.77;;;3.90;99.90;;;;;;4353710;32;20212;-66
2021/12/10 08:03:56;;;;;;;121.40;116.13;;;3.90;99.90;;;;;;4348129;33;20155;-65
2021/12/10 08:06:27;;;;;;;117.13;111.97;;;4.00;99.90;;;;;;4348524;33;20158;-66
2021/12/10 08:08:54;;;;;;;118.00;112.47;;;4.00;99.90;;;;;;4355368;33;20187;-65
2021/12/10 08:11:22;;;;;;;114.77;109.23;;;4.10;99.90;;;;;;4358452;32;20172;-65
2021/12/10 08:13:50;;;;;;;113.87;107.77;;;4.10;99.90;;;;;;4349465;33;20180;-65
2021/12/10 08:16:18;;;;;;;114.70;109.53;;;4.30;99.90;;;;;;4349548;33;20604;-65
2021/12/10 08:18:45;;;;;;;113.53;108.53;;;4.30;99.90;;;;;;4361914;32;20659;-65
2021/12/10 08:21:12;;;;;;;117.27;111.70;;;4.50;99.90;;;;;;4351917;33;20157;-67
2021/12/10 08:23:40;;;;;;;121.87;116.27;;;4.40;99.90;;;;;;4349883;33;20158;-67
2021/12/10 08:26:08;;;;;;;116.93;111.83;;;4.50;99.90;;;;;;4347722;33;20234;-64
2021/12/10 08:28:35;;;;;;;127.97;122.30;;;4.50;99.90;;;;;;4354433;32;20149;-64
2021/12/10 08:31:03;;;;;;;122.77;116.97;;;4.60;99.90;;;;;;4358370;32;20620;-64
2021/12/10 08:33:31;;;;;;;130.27;124.10;;;4.70;99.90;;;;;;4348494;33;20180;-64
2021/12/10 08:36:02;;;;;;;126.93;121.33;;;4.70;99.90;;;;;;4358506;32;20161;-64
2021/12/10 08:38:29;;;;;;;119.30;113.87;;;4.80;99.90;;;;;;4351571;32;20172;-64
2021/12/10 08:41:00;;;;;;;117.57;112.43;;;4.70;99.90;;;;;;4348146;32;20173;-64
2021/12/10 08:43:29;;;;;;;111.20;106.27;;;4.80;99.90;;;;;;4357821;33;20202;-64
2021/12/10 08:45:56;;;;;;;112.80;107.50;;;4.80;99.90;;;;;;4358597;33;20162;-65
2021/12/10 08:48:26;;;;;;;113.23;108.00;;;4.80;99.90;;;;;;4359856;32;20223;-65
2021/12/10 08:50:53;;;;;;;116.23;111.10;;;4.90;99.90;;;;;;4359035;32;20540;-65
2021/12/10 08:53:20;;;;;;;101.83;97.23;;;4.90;99.90;;;;;;4351225;33;20172;-66
2021/12/10 08:55:50;;;;;;;102.37;97.83;;;4.90;99.90;;;;;;4349183;33;20204;-67
2021/12/10 08:58:20;;;;;;;104.50;99.67;;;4.90;99.90;;;;;;4361935;32;20200;-65
2021/12/10 09:00:54;;;;;;;104.80;99.80;;;4.90;99.90;;;;;;4360344;32;20615;-65
2021/12/10 09:03:21;;;;;;;101.10;96.53;;;4.90;99.90;;;;;;4351998;33;20152;-65
2021/12/10 09:05:47;;;;;;;98.13;93.43;;;4.90;99.90;;;;;;4346415;33;20248;-62
2021/12/10 09:08:15;;;;;;;102.97;97.90;;;5.00;99.90;;;;;;4358462;32;20240;-66
2021/12/10 09:10:44;;;;;;;97.60;92.47;;;5.00;99.90;;;;;;4362761;32;20175;-65
2021/12/10 09:13:15;;;;;;;89.87;85.30;;;5.00;99.90;;;;;;4359265;33;20157;-65
2021/12/10 09:15:46;;;;;;;89.37;84.87;;;5.10;99.90;;;;;;4360657;32;20155;-66
2021/12/10 09:18:14;;;;;;;89.60;84.97;;;5.10;99.90;;;;;;4347972;33;20159;-66
2021/12/10 09:20:44;;;;;;;86.53;82.43;;;5.20;99.90;;;;;;4346360;33;20187;-64
2021/12/10 09:23:15;;;;;;;85.00;80.63;;;5.20;99.90;;;;;;4346640;33;20160;-64
2021/12/10 09:25:43;;;;;;;78.63;74.50;;;5.30;99.90;;;;;;4357680;32;20175;-64
2021/12/10 09:28:10;;;;;;;79.70;75.53;;;5.20;99.90;;;;;;4348397;32;20172;-65
2021/12/10 09:30:41;;;;;;;76.27;72.70;;;5.30;99.90;;;;;;4352850;32;20162;-64
2021/12/10 09:33:10;;;;;;;73.13;69.37;;;5.30;99.90;;;;;;4350534;33;20273;-64
2021/12/10 09:35:38;;;;;;;71.00;67.17;;;5.40;99.90;;;;;;4358612;33;20190;-64
2021/12/10 09:38:06;;;;;;;72.00;68.10;;;5.30;99.90;;;;;;4348372;33;20192;-65
2021/12/10 09:40:35;;;;;;;69.40;65.60;;;5.30;99.90;;;;;;4346375;33;20177;-63
2021/12/10 09:43:02;;;;;;;74.43;70.60;;;5.30;99.90;;;;;;4360423;32;20157;-64
2021/12/10 09:45:33;;;;;;;73.27;69.40;;;5.30;99.90;;;;;;4360034;32;20179;-66
2021/12/10 09:48:00;;;;;;;71.73;68.37;;;5.10;99.90;;;;;;4346094;33;20192;-63
2021/12/10 09:50:33;;;;;;;73.87;69.77;;;5.20;99.90;;;;;;4350050;33;20183;-66
2021/12/10 09:53:00;;;;;;;69.37;66.07;;;5.30;99.90;;;;;;4346307;33;20570;-63
2021/12/10 09:55:28;;;;;;;74.67;70.33;;;5.30;99.90;;;;;;4346079;33;20149;-66
2021/12/10 09:57:56;;;;;;;69.33;65.50;;;5.40;99.90;;;;;;4350423;32;20167;-63
2021/12/10 10:00:26;;;;;;;71.43;67.50;;;5.40;99.90;;;;;;4360872;32;20179;-65
2021/12/10 10:02:54;;;;;;;70.33;66.43;;;5.50;99.90;;;;;;4360839;32;20187;-64
2021/12/10 10:05:26;;;;;;;68.47;64.97;;;5.50;99.90;;;;;;4359918;33;20585;-63
2021/12/10 10:07:55;;;;;;;68.60;64.67;;;5.50;99.90;;;;;;4358294;32;20184;-64
2021/12/10 10:10:23;;;;;;;65.23;61.87;;;5.50;99.90;;;;;;4359331;32;20161;-63
2021/12/10 10:12:52;;;;;;;68.63;64.57;;;5.40;99.90;;;;;;4349756;33;20161;-63
2021/12/10 10:15:24;;;;;;;68.93;65.57;;;5.30;99.90;;;;;;4346678;33;20175;-63
2021/12/10 10:17:51;;;;;;;70.90;67.37;;;5.30;99.90;;;;;;4353870;32;20169;-63
2021/12/10 10:20:20;;;;;;;71.17;67.33;;;5.30;99.90;;;;;;4361380;32;20259;-63
2021/12/10 10:22:47;;;;;;;70.90;67.43;;;5.30;99.90;;;;;;4284025;33;1999974;-66
2021/12/10 10:25:17;;;;;;;70.43;67.03;;;5.20;99.90;;;;;;4371819;32;20152;-63
2021/12/10 10:27:45;;;;;;;71.47;68.07;;;5.40;99.90;;;;;;4369060;32;20231;-65
2021/12/10 10:30:16;;;;;;;66.00;62.77;;;5.50;99.90;;;;;;4376679;32;20148;-64
2021/12/10 10:32:46;;;;;;;65.47;61.97;;;5.60;99.90;;;;;;4372783;32;20198;-65
2021/12/10 10:35:17;;;;;;;57.27;54.43;;;5.60;99.90;;;;;;4365473;32;20187;-66
2021/12/10 10:37:45;;;;;;;56.10;52.97;;;5.60;99.90;;;;;;4364044;32;20145;-64
2021/12/10 10:40:21;;;;;;;53.60;50.80;;;5.70;99.90;;;;;;4362147;32;20203;-65
2021/12/10 10:42:49;;;;;;;54.80;51.77;;;5.80;99.90;;;;;;4364931;32;20661;-65
2021/12/10 10:45:20;;;;;;;51.40;48.77;;;5.80;99.90;;;;;;4361167;32;20518;-66
2021/12/10 10:47:49;;;;;;;53.50;50.73;;;5.80;99.90;;;;;;4365100;32;20195;-66
2021/12/10 10:50:18;;;;;;;49.77;47.40;;;5.80;99.90;;;;;;4373658;32;20163;-64
2021/12/10 10:52:50;;;;;;;55.50;52.30;;;5.70;99.90;;;;;;4371298;32;20164;-66
2021/12/10 10:55:26;;;;;;;51.27;48.47;;;5.70;99.90;;;;;;4374582;32;20236;-66
2021/12/10 10:57:57;;;;;;;51.73;48.57;;;5.70;99.90;;;;;;4371216;32;20148;-65
2021/12/10 11:00:32;;;;;;;50.97;48.00;;;5.70;99.90;;;;;;4371690;32;20490;-65
2021/12/10 11:03:04;;;;;;;48.63;45.83;;;5.70;99.90;;;;;;4368496;32;20141;-66
2021/12/10 11:05:34;;;;;;;49.73;46.93;;;5.80;99.90;;;;;;4361475;32;20569;-65
2021/12/10 11:08:06;;;;;;;49.63;46.83;;;5.80;99.90;;;;;;4365650;32;20167;-64
2021/12/10 11:10:37;;;;;;;47.83;45.23;;;5.80;99.90;;;;;;4361091;32;20148;-65
2021/12/10 11:13:14;;;;;;;48.70;45.97;;;5.90;99.90;;;;;;4371102;32;20160;-66
2021/12/10 11:15:58;;;;;;;45.77;42.87;;;5.90;99.90;;;;;;4374646;32;20147;-65
2021/12/10 11:18:26;;;;;;;50.27;47.57;;;6.00;99.90;;;;;;4364211;32;20149;-66
2021/12/10 11:20:53;;;;;;;49.00;46.33;;;6.10;99.90;;;;;;4373561;32;20164;-65
2021/12/10 11:23:25;;;;;;;49.10;46.60;;;6.10;99.90;;;;;;4371366;32;20196;-65
2021/12/10 11:25:56;;;;;;;47.30;44.50;;;6.20;99.90;;;;;;4374684;32;20164;-67
2021/12/10 11:28:26;;;;;;;48.67;46.00;;;6.30;99.90;;;;;;4374271;32;20144;-68
2021/12/10 11:31:03;;;;;;;47.63;45.07;;;6.20;99.90;;;;;;4366288;32;20169;-64
2021/12/10 11:33:32;;;;;;;43.70;41.23;;;6.10;99.90;;;;;;4372265;32;20179;-64
2021/12/10 11:36:05;;;;;;;48.40;45.13;;;6.10;99.90;;;;;;4374900;32;20314;-64
2021/12/10 11:38:33;;;;;;;49.00;46.30;;;6.00;99.90;;;;;;4364814;32;20145;-63
2021/12/10 11:41:04;;;;;;;47.23;44.90;;;6.10;99.90;;;;;;4367947;32;20168;-66
2021/12/10 11:43:45;;;;;;;45.70;43.20;;;6.20;99.90;;;;;;4366798;32;20148;-65
2021/12/10 11:46:30;;;;;;;47.47;44.87;;;6.20;99.90;;;;;;4375172;32;20136;-64
2021/12/10 11:49:06;;;;;;;48.03;45.43;;;6.20;99.90;;;;;;4366062;32;20148;-66
2021/12/10 11:51:37;;;;;;;46.20;43.47;;;6.30;99.90;;;;;;4361071;33;20175;-66
2021/12/10 11:54:09;;;;;;;47.07;43.97;;;6.30;99.90;;;;;;4360038;33;20163;-65
2021/12/10 11:56:39;;;;;;;45.60;43.13;;;6.40;99.90;;;;;;4367787;32;20294;-65
2021/12/10 11:59:10;;;;;;;44.13;41.70;;;6.50;99.90;;;;;;4374945;32;20145;-67
2021/12/10 12:01:50;;;;;;;46.90;44.57;;;6.40;99.90;;;;;;4374819;32;20212;-65
2021/12/10 12:04:24;;;;;;;39.13;36.50;;;6.40;99.90;;;;;;4379108;32;20584;-64
2021/12/10 12:07:20;;;;;;;39.23;36.97;;;6.50;99.90;;;;;;4379293;32;20548;-65
2021/12/10 12:09:51;;;;;;;37.93;35.97;;;6.50;99.90;;;;;;4379328;32;20156;-63
2021/12/10 12:12:22;;;;;;;40.50;37.97;;;6.50;99.90;;;;;;4376941;32;20244;-63
2021/12/10 12:14:53;;;;;;;39.53;37.53;;;6.50;99.90;;;;;;4376856;32;20149;-63
2021/12/10 12:17:45;;;;;;;35.67;33.40;;;6.50;99.90;;;;;;4365860;32;20201;-67
2021/12/10 12:20:43;;;;;;;35.00;32.80;;;6.60;99.90;;;;;;4337044;33;20172;-64
2021/12/10 12:26:03;;;;;;;36.03;34.33;;;6.50;99.90;;;;;;4297684;33;20602;-67
2021/12/10 12:28:31;;;;;;;35.87;33.23;;;6.40;99.90;;;;;;4301739;33;20239;-67
2021/12/10 12:31:05;;;;;;;34.67;32.83;;;6.50;99.90;;;;;;4301970;33;20570;-65
2021/12/10 12:33:34;;;;;;;32.10;30.13;;;6.50;99.90;;;;;;4301928;33;20181;-64
2021/12/10 12:36:13;;;;;;;37.77;34.73;;;6.50;99.90;;;;;;4301579;33;20170;-64
2021/12/10 12:38:47;;;;;;;33.37;31.53;;;6.50;99.90;;;;;;4302647;33;20555;-62
2021/12/10 12:44:19;;;;;;;34.10;32.20;;;6.40;99.90;;;;;;4300550;33;20192;-64
2021/12/10 12:47:03;;;;;;;34.23;32.13;;;6.50;99.90;;;;;;4301404;33;20187;-63
2021/12/10 12:49:36;;;;;;;31.27;29.53;;;6.50;99.90;;;;;;4300934;33;20608;-64
2021/12/10 12:52:09;;;;;;;29.67;27.33;;;6.50;99.90;;;;;;4301210;33;20161;-64